sensor_id;sensor_type;location;lat;lon;timestamp;P1;P2;P0
75563;PMS7003;64143;53.034;18.582;2023-02-13T00:02:08;17;13;7
75563;PMS7003;64143;53.034;18.582;2023-02-13T00:05:10;9;8;6
75563;PMS7003;64143;53.034;18.582;2023-02-13T00:08:15;11;8;5
75563;PMS7003;64143;53.034;18.582;2023-02-13T00:11:16;12;10;7
75563;PMS7003;64143;53.034;18.582;2023-02-13T00:14:17;9;8;4
75563;PMS7003;64143;53.034;18.582;2023-02-13T00:17:19;14;12;7
75563;PMS7003;64143;53.034;18.582;2023-02-13T00:20:20;11;10;6
75563;PMS7003;64143;53.034;18.582;2023-02-13T00:23:22;6;5;4
75563;PMS7003;64143;53.034;18.582;2023-02-13T00:26:23;9;9;6
75563;PMS7003;64143;53.034;18.582;2023-02-13T00:29:29;14;10;6
75563;PMS7003;64143;53.034;18.582;2023-02-13T00:32:31;13;11;6
75563;PMS7003;64143;53.034;18.582;2023-02-13T00:35:33;13;11;6
75563;PMS7003;64143;53.034;18.582;2023-02-13T00:38:34;9;9;5
75563;PMS7003;64143;53.034;18.582;2023-02-13T00:41:37;15;12;5
75563;PMS7003;64143;53.034;18.582;2023-02-13T00:44:39;12;9;4
75563;PMS7003;64143;53.034;18.582;2023-02-13T00:47:41;9;9;6
75563;PMS7003;64143;53.034;18.582;2023-02-13T00:50:46;10;10;6
75563;PMS7003;64143;53.034;18.582;2023-02-13T00:53:48;13;9;5
75563;PMS7003;64143;53.034;18.582;2023-02-13T00:56:49;12;12;6
75563;PMS7003;64143;53.034;18.582;2023-02-13T00:59:51;9;7;5
75563;PMS7003;64143;53.034;18.582;2023-02-13T01:02:52;14;12;7
75563;PMS7003;64143;53.034;18.582;2023-02-13T01:05:55;10;10;6
75563;PMS7003;64143;53.034;18.582;2023-02-13T01:08:57;8;8;6
75563;PMS7003;64143;53.034;18.582;2023-02-13T01:12:02;12;11;8
75563;PMS7003;64143;53.034;18.582;2023-02-13T01:15:04;9;9;5
75563;PMS7003;64143;53.034;18.582;2023-02-13T01:18:06;15;14;5
75563;PMS7003;64143;53.034;18.582;2023-02-13T01:21:13;11;7;5
75563;PMS7003;64143;53.034;18.582;2023-02-13T01:24:17;9;9;6
75563;PMS7003;64143;53.034;18.582;2023-02-13T01:27:23;11;8;6
75563;PMS7003;64143;53.034;18.582;2023-02-13T01:30:25;13;12;7
75563;PMS7003;64143;53.034;18.582;2023-02-13T01:33:27;11;8;5
75563;PMS7003;64143;53.034;18.582;2023-02-13T01:36:29;11;11;8
75563;PMS7003;64143;53.034;18.582;2023-02-13T01:39:31;10;9;5
75563;PMS7003;64143;53.034;18.582;2023-02-13T01:42:33;15;12;6
75563;PMS7003;64143;53.034;18.582;2023-02-13T01:45:37;18;12;5
75563;PMS7003;64143;53.034;18.582;2023-02-13T01:48:42;12;10;6
75563;PMS7003;64143;53.034;18.582;2023-02-13T01:51:43;14;9;4
75563;PMS7003;64143;53.034;18.582;2023-02-13T01:54:47;5;5;3
75563;PMS7003;64143;53.034;18.582;2023-02-13T01:57:50;10;7;6
75563;PMS7003;64143;53.034;18.582;2023-02-13T02:04:07;11;11;5
75563;PMS7003;64143;53.034;18.582;2023-02-13T02:07:23;10;10;7
75563;PMS7003;64143;53.034;18.582;2023-02-13T02:10:25;11;8;4
75563;PMS7003;64143;53.034;18.582;2023-02-13T02:13:30;13;7;6
75563;PMS7003;64143;53.034;18.582;2023-02-13T02:16:32;13;11;5
75563;PMS7003;64143;53.034;18.582;2023-02-13T02:39:22;6;5;2
75563;PMS7003;64143;53.034;18.582;2023-02-13T02:42:34;14;12;5
75563;PMS7003;64143;53.034;18.582;2023-02-13T02:49:06;8;6;4
75563;PMS7003;64143;53.034;18.582;2023-02-13T02:52:27;14;6;4
75563;PMS7003;64143;53.034;18.582;2023-02-13T03:02:15;11;8;5
75563;PMS7003;64143;53.034;18.582;2023-02-13T03:05:43;8;8;5
75563;PMS7003;64143;53.034;18.582;2023-02-13T03:08:53;14;10;6
75563;PMS7003;64143;53.034;18.582;2023-02-13T03:12:11;7;7;5
75563;PMS7003;64143;53.034;18.582;2023-02-13T03:15:30;8;8;5
75563;PMS7003;64143;53.034;18.582;2023-02-13T03:18:38;11;7;5
75563;PMS7003;64143;53.034;18.582;2023-02-13T03:21:57;12;10;4
75563;PMS7003;64143;53.034;18.582;2023-02-13T03:25:18;7;6;5
75563;PMS7003;64143;53.034;18.582;2023-02-13T03:28:35;6;6;5
75563;PMS7003;64143;53.034;18.582;2023-02-13T03:35:24;11;8;5
75563;PMS7003;64143;53.034;18.582;2023-02-13T03:38:49;7;5;3
75563;PMS7003;64143;53.034;18.582;2023-02-13T03:42:03;6;6;3
75563;PMS7003;64143;53.034;18.582;2023-02-13T03:45:21;2;1;1
75563;PMS7003;64143;53.034;18.582;2023-02-13T03:48:40;7;7;4
75563;PMS7003;64143;53.034;18.582;2023-02-13T03:51:59;8;6;3
75563;PMS7003;64143;53.034;18.582;2023-02-13T03:55:08;4;4;3
75563;PMS7003;64143;53.034;18.582;2023-02-13T03:58:38;6;5;2
75563;PMS7003;64143;53.034;18.582;2023-02-13T04:05:10;8;5;3
75563;PMS7003;64143;53.034;18.582;2023-02-13T04:08:20;5;4;3
75563;PMS7003;64143;53.034;18.582;2023-02-13T04:11:27;5;5;4
75563;PMS7003;64143;53.034;18.582;2023-02-13T04:14:35;7;5;3
75563;PMS7003;64143;53.034;18.582;2023-02-13T04:17:44;6;5;3
75563;PMS7003;64143;53.034;18.582;2023-02-13T04:20:54;4;4;3
75563;PMS7003;64143;53.034;18.582;2023-02-13T04:23:55;3;3;1
75563;PMS7003;64143;53.034;18.582;2023-02-13T04:27:06;2;2;1
75563;PMS7003;64143;53.034;18.582;2023-02-13T04:30:11;7;5;2
75563;PMS7003;64143;53.034;18.582;2023-02-13T04:33:14;8;6;2
75563;PMS7003;64143;53.034;18.582;2023-02-13T04:36:15;3;3;2
75563;PMS7003;64143;53.034;18.582;2023-02-13T04:39:16;7;5;2
75563;PMS7003;64143;53.034;18.582;2023-02-13T04:42:27;3;3;2
75563;PMS7003;64143;53.034;18.582;2023-02-13T04:45:28;8;7;2
75563;PMS7003;64143;53.034;18.582;2023-02-13T04:48:30;2;2;2
75563;PMS7003;64143;53.034;18.582;2023-02-13T04:51:31;7;5;3
75563;PMS7003;64143;53.034;18.582;2023-02-13T04:54:33;3;3;3
75563;PMS7003;64143;53.034;18.582;2023-02-13T04:57:34;6;2;1
75563;PMS7003;64143;53.034;18.582;2023-02-13T05:00:36;3;2;2
75563;PMS7003;64143;53.034;18.582;2023-02-13T05:03:42;4;3;2
75563;PMS7003;64143;53.034;18.582;2023-02-13T05:06:43;5;5;1
75563;PMS7003;64143;53.034;18.582;2023-02-13T05:09:45;4;4;2
75563;PMS7003;64143;53.034;18.582;2023-02-13T05:12:46;5;5;3
75563;PMS7003;64143;53.034;18.582;2023-02-13T05:15:48;8;6;3
75563;PMS7003;64143;53.034;18.582;2023-02-13T05:19:02;5;4;3
75563;PMS7003;64143;53.034;18.582;2023-02-13T05:22:04;3;2;1
75563;PMS7003;64143;53.034;18.582;2023-02-13T05:25:18;4;2;1
75563;PMS7003;64143;53.034;18.582;2023-02-13T05:28:29;4;4;3
75563;PMS7003;64143;53.034;18.582;2023-02-13T05:31:42;5;4;2
75563;PMS7003;64143;53.034;18.582;2023-02-13T05:34:45;5;3;2
75563;PMS7003;64143;53.034;18.582;2023-02-13T05:37:55;3;3;2
75563;PMS7003;64143;53.034;18.582;2023-02-13T05:40:58;6;5;3
75563;PMS7003;64143;53.034;18.582;2023-02-13T05:44:00;8;8;5
75563;PMS7003;64143;53.034;18.582;2023-02-13T05:47:02;9;8;5
75563;PMS7003;64143;53.034;18.582;2023-02-13T05:50:04;14;9;7
75563;PMS7003;64143;53.034;18.582;2023-02-13T05:53:16;5;5;5
75563;PMS7003;64143;53.034;18.582;2023-02-13T05:56:18;4;4;2
75563;PMS7003;64143;53.034;18.582;2023-02-13T05:59:19;3;3;2
75563;PMS7003;64143;53.034;18.582;2023-02-13T06:02:21;5;5;3
75563;PMS7003;64143;53.034;18.582;2023-02-13T06:05:22;3;3;2
75563;PMS7003;64143;53.034;18.582;2023-02-13T06:08:24;3;2;2
75563;PMS7003;64143;53.034;18.582;2023-02-13T06:11:26;3;3;2
75563;PMS7003;64143;53.034;18.582;2023-02-13T06:14:31;7;7;3
75563;PMS7003;64143;53.034;18.582;2023-02-13T06:17:32;5;3;2
75563;PMS7003;64143;53.034;18.582;2023-02-13T06:20:34;4;4;2
75563;PMS7003;64143;53.034;18.582;2023-02-13T06:23:36;7;6;3
75563;PMS7003;64143;53.034;18.582;2023-02-13T06:26:37;7;3;2
75563;PMS7003;64143;53.034;18.582;2023-02-13T06:29:39;8;7;3
75563;PMS7003;64143;53.034;18.582;2023-02-13T06:32:40;3;2;2
75563;PMS7003;64143;53.034;18.582;2023-02-13T06:35:46;6;6;5
75563;PMS7003;64143;53.034;18.582;2023-02-13T06:38:47;5;5;3
75563;PMS7003;64143;53.034;18.582;2023-02-13T06:41:49;10;6;3
75563;PMS7003;64143;53.034;18.582;2023-02-13T06:44:51;5;5;3
75563;PMS7003;64143;53.034;18.582;2023-02-13T06:47:52;7;5;2
75563;PMS7003;64143;53.034;18.582;2023-02-13T06:50:54;8;8;4
75563;PMS7003;64143;53.034;18.582;2023-02-13T06:53:55;14;8;6
75563;PMS7003;64143;53.034;18.582;2023-02-13T06:57:01;15;10;7
75563;PMS7003;64143;53.034;18.582;2023-02-13T07:00:02;20;16;11
75563;PMS7003;64143;53.034;18.582;2023-02-13T07:03:05;12;8;6
75563;PMS7003;64143;53.034;18.582;2023-02-13T07:06:07;12;8;4
75563;PMS7003;64143;53.034;18.582;2023-02-13T07:09:08;13;11;6
75563;PMS7003;64143;53.034;18.582;2023-02-13T07:12:21;8;8;4
75563;PMS7003;64143;53.034;18.582;2023-02-13T07:15:23;9;9;4
75563;PMS7003;64143;53.034;18.582;2023-02-13T07:18:25;6;6;3
75563;PMS7003;64143;53.034;18.582;2023-02-13T07:21:26;7;7;5
75563;PMS7003;64143;53.034;18.582;2023-02-13T07:24:28;8;8;5
75563;PMS7003;64143;53.034;18.582;2023-02-13T07:27:29;1;0;0
75563;PMS7003;64143;53.034;18.582;2023-02-13T07:30:31;10;7;4
75563;PMS7003;64143;53.034;18.582;2023-02-13T07:33:36;10;9;5
75563;PMS7003;64143;53.034;18.582;2023-02-13T07:36:38;10;9;6
75563;PMS7003;64143;53.034;18.582;2023-02-13T07:39:40;14;14;8
75563;PMS7003;64143;53.034;18.582;2023-02-13T07:42:42;25;23;11
75563;PMS7003;64143;53.034;18.582;2023-02-13T07:45:43;22;19;13
75563;PMS7003;64143;53.034;18.582;2023-02-13T07:48:46;19;17;9
75563;PMS7003;64143;53.034;18.582;2023-02-13T07:51:48;14;13;8
75563;PMS7003;64143;53.034;18.582;2023-02-13T07:54:53;11;9;5
75563;PMS7003;64143;53.034;18.582;2023-02-13T07:57:54;21;16;9
75563;PMS7003;64143;53.034;18.582;2023-02-13T08:00:56;30;20;14
75563;PMS7003;64143;53.034;18.582;2023-02-13T08:03:57;22;17;11
75563;PMS7003;64143;53.034;18.582;2023-02-13T08:06:59;21;19;11
75563;PMS7003;64143;53.034;18.582;2023-02-13T08:10:01;41;34;21
75563;PMS7003;64143;53.034;18.582;2023-02-13T08:13:15;49;40;22
75563;PMS7003;64143;53.034;18.582;2023-02-13T08:16:20;45;35;21
75563;PMS7003;64143;53.034;18.582;2023-02-13T08:19:22;23;19;12
75563;PMS7003;64143;53.034;18.582;2023-02-13T08:22:23;14;14;7
75563;PMS7003;64143;53.034;18.582;2023-02-13T08:25:24;18;12;9
75563;PMS7003;64143;53.034;18.582;2023-02-13T08:28:27;6;6;4
75563;PMS7003;64143;53.034;18.582;2023-02-13T08:31:29;22;14;10
75563;PMS7003;64143;53.034;18.582;2023-02-13T08:34:30;14;14;8
75563;PMS7003;64143;53.034;18.582;2023-02-13T08:37:35;8;8;5
75563;PMS7003;64143;53.034;18.582;2023-02-13T08:40:37;5;5;3
75563;PMS7003;64143;53.034;18.582;2023-02-13T08:43:38;8;7;4
75563;PMS7003;64143;53.034;18.582;2023-02-13T08:46:40;6;6;4
75563;PMS7003;64143;53.034;18.582;2023-02-13T08:49:42;9;8;4
75563;PMS7003;64143;53.034;18.582;2023-02-13T08:52:43;8;8;5
75563;PMS7003;64143;53.034;18.582;2023-02-13T08:58:53;6;6;4
75563;PMS7003;64143;53.034;18.582;2023-02-13T09:01:55;4;4;3
75563;PMS7003;64143;53.034;18.582;2023-02-13T09:04:57;11;11;7
75563;PMS7003;64143;53.034;18.582;2023-02-13T09:07:59;13;12;5
75563;PMS7003;64143;53.034;18.582;2023-02-13T09:11:03;9;8;7
75563;PMS7003;64143;53.034;18.582;2023-02-13T09:14:11;13;12;9
75563;PMS7003;64143;53.034;18.582;2023-02-13T09:17:12;13;10;7
75563;PMS7003;64143;53.034;18.582;2023-02-13T09:20:19;3;3;1
75563;PMS7003;64143;53.034;18.582;2023-02-13T09:23:20;11;9;4
75563;PMS7003;64143;53.034;18.582;2023-02-13T09:26:22;27;16;10
75563;PMS7003;64143;53.034;18.582;2023-02-13T09:29:32;17;13;9
75563;PMS7003;64143;53.034;18.582;2023-02-13T09:32:33;20;17;9
75563;PMS7003;64143;53.034;18.582;2023-02-13T09:35:37;12;12;7
75563;PMS7003;64143;53.034;18.582;2023-02-13T09:38:43;18;9;5
75563;PMS7003;64143;53.034;18.582;2023-02-13T09:41:46;10;10;6
75563;PMS7003;64143;53.034;18.582;2023-02-13T09:48:03;6;5;2
75563;PMS7003;64143;53.034;18.582;2023-02-13T09:51:06;5;5;4
75563;PMS7003;64143;53.034;18.582;2023-02-13T09:54:19;24;20;7
75563;PMS7003;64143;53.034;18.582;2023-02-13T10:00:36;8;4;4
75563;PMS7003;64143;53.034;18.582;2023-02-13T10:03:47;9;9;5
75563;PMS7003;64143;53.034;18.582;2023-02-13T10:10:13;13;12;6
75563;PMS7003;64143;53.034;18.582;2023-02-13T10:19:49;7;7;6
75563;PMS7003;64143;53.034;18.582;2023-02-13T10:29:30;8;6;4
75563;PMS7003;64143;53.034;18.582;2023-02-13T10:39:32;3;2;0
75563;PMS7003;64143;53.034;18.582;2023-02-13T10:42:36;7;6;4
75563;PMS7003;64143;53.034;18.582;2023-02-13T10:45:50;5;4;2
75563;PMS7003;64143;53.034;18.582;2023-02-13T10:49:06;5;5;3
75563;PMS7003;64143;53.034;18.582;2023-02-13T11:02:11;1;1;1
75563;PMS7003;64143;53.034;18.582;2023-02-13T11:05:21;2;2;2
75563;PMS7003;64143;53.034;18.582;2023-02-13T11:08:32;4;4;3
75563;PMS7003;64143;53.034;18.582;2023-02-13T11:11:42;2;2;1
75563;PMS7003;64143;53.034;18.582;2023-02-13T11:14:53;2;2;1
75563;PMS7003;64143;53.034;18.582;2023-02-13T11:17:58;3;2;2
75563;PMS7003;64143;53.034;18.582;2023-02-13T11:24:20;3;3;1
75563;PMS7003;64143;53.034;18.582;2023-02-13T11:27:28;3;3;2
75563;PMS7003;64143;53.034;18.582;2023-02-13T11:30:36;4;3;2
75563;PMS7003;64143;53.034;18.582;2023-02-13T11:33:38;6;6;4
75563;PMS7003;64143;53.034;18.582;2023-02-13T11:36:40;9;7;4
75563;PMS7003;64143;53.034;18.582;2023-02-13T11:39:43;13;8;4
75563;PMS7003;64143;53.034;18.582;2023-02-13T11:42:46;21;18;11
75563;PMS7003;64143;53.034;18.582;2023-02-13T11:49:03;8;6;3
75563;PMS7003;64143;53.034;18.582;2023-02-13T11:52:07;8;6;4
75563;PMS7003;64143;53.034;18.582;2023-02-13T11:58:28;4;4;2
75563;PMS7003;64143;53.034;18.582;2023-02-13T12:01:30;9;5;3
75563;PMS7003;64143;53.034;18.582;2023-02-13T12:04:32;3;3;1
75563;PMS7003;64143;53.034;18.582;2023-02-13T12:07:33;3;3;2
75563;PMS7003;64143;53.034;18.582;2023-02-13T12:10:39;4;4;3
75563;PMS7003;64143;53.034;18.582;2023-02-13T12:13:40;6;6;3
75563;PMS7003;64143;53.034;18.582;2023-02-13T12:16:44;6;5;2
75563;PMS7003;64143;53.034;18.582;2023-02-13T12:19:50;5;2;1
75563;PMS7003;64143;53.034;18.582;2023-02-13T12:22:58;4;4;2
75563;PMS7003;64143;53.034;18.582;2023-02-13T12:26:09;10;8;4
75563;PMS7003;64143;53.034;18.582;2023-02-13T12:45:39;6;5;3
75563;PMS7003;64143;53.034;18.582;2023-02-13T12:48:58;3;2;2
75563;PMS7003;64143;53.034;18.582;2023-02-13T12:52:12;3;2;1
75563;PMS7003;64143;53.034;18.582;2023-02-13T13:02:20;6;5;2
75563;PMS7003;64143;53.034;18.582;2023-02-13T13:06:00;4;4;2
75563;PMS7003;64143;53.034;18.582;2023-02-13T13:08:37;4;3;2
75563;PMS7003;64143;53.034;18.582;2023-02-13T13:27:51;3;3;3
75563;PMS7003;64143;53.034;18.582;2023-02-13T13:30:57;3;3;1
75563;PMS7003;64143;53.034;18.582;2023-02-13T13:34:00;6;3;2
75563;PMS7003;64143;53.034;18.582;2023-02-13T13:41:09;3;3;2
75563;PMS7003;64143;53.034;18.582;2023-02-13T13:50:01;6;2;2
75563;PMS7003;64143;53.034;18.582;2023-02-13T13:56:22;6;6;4
75563;PMS7003;64143;53.034;18.582;2023-02-13T14:09:02;7;6;4
75563;PMS7003;64143;53.034;18.582;2023-02-13T14:18:32;5;3;2
75563;PMS7003;64143;53.034;18.582;2023-02-13T14:21:35;5;3;3
75563;PMS7003;64143;53.034;18.582;2023-02-13T14:24:37;10;8;2
75563;PMS7003;64143;53.034;18.582;2023-02-13T14:27:39;5;2;2
75563;PMS7003;64143;53.034;18.582;2023-02-13T14:30:41;3;2;2
75563;PMS7003;64143;53.034;18.582;2023-02-13T14:33:52;6;5;3
75563;PMS7003;64143;53.034;18.582;2023-02-13T14:40:48;5;5;3
75563;PMS7003;64143;53.034;18.582;2023-02-13T14:46:52;5;5;3
75563;PMS7003;64143;53.034;18.582;2023-02-13T14:49:55;7;7;5
75563;PMS7003;64143;53.034;18.582;2023-02-13T14:53:01;6;5;2
75563;PMS7003;64143;53.034;18.582;2023-02-13T14:56:11;3;3;2
75563;PMS7003;64143;53.034;18.582;2023-02-13T14:59:21;1;1;1
75563;PMS7003;64143;53.034;18.582;2023-02-13T15:02:36;4;4;2
75563;PMS7003;64143;53.034;18.582;2023-02-13T15:05:35;3;3;3
75563;PMS7003;64143;53.034;18.582;2023-02-13T15:08:40;5;5;2
75563;PMS7003;64143;53.034;18.582;2023-02-13T15:11:53;2;2;1
75563;PMS7003;64143;53.034;18.582;2023-02-13T15:14:55;1;1;1
75563;PMS7003;64143;53.034;18.582;2023-02-13T15:18:18;1;1;0
75563;PMS7003;64143;53.034;18.582;2023-02-13T15:21:21;2;2;1
75563;PMS7003;64143;53.034;18.582;2023-02-13T15:24:35;3;3;2
75563;PMS7003;64143;53.034;18.582;2023-02-13T15:27:42;3;3;1
75563;PMS7003;64143;53.034;18.582;2023-02-13T15:33:57;3;3;2
75563;PMS7003;64143;53.034;18.582;2023-02-13T15:37:01;4;4;1
75563;PMS7003;64143;53.034;18.582;2023-02-13T15:43:24;2;2;1
75563;PMS7003;64143;53.034;18.582;2023-02-13T15:46:27;8;8;4
75563;PMS7003;64143;53.034;18.582;2023-02-13T15:49:37;4;4;3
75563;PMS7003;64143;53.034;18.582;2023-02-13T15:52:43;4;4;4
75563;PMS7003;64143;53.034;18.582;2023-02-13T15:58:59;3;2;1
75563;PMS7003;64143;53.034;18.582;2023-02-13T16:02:04;4;3;2
75563;PMS7003;64143;53.034;18.582;2023-02-13T16:05:14;3;3;2
75563;PMS7003;64143;53.034;18.582;2023-02-13T16:08:36;3;2;2
75563;PMS7003;64143;53.034;18.582;2023-02-13T16:11:34;5;4;2
75563;PMS7003;64143;53.034;18.582;2023-02-13T16:17:53;5;4;3
75563;PMS7003;64143;53.034;18.582;2023-02-13T16:20:55;3;3;2
75563;PMS7003;64143;53.034;18.582;2023-02-13T16:24:07;3;3;2
75563;PMS7003;64143;53.034;18.582;2023-02-13T16:27:12;3;3;2
75563;PMS7003;64143;53.034;18.582;2023-02-13T16:33:38;5;4;3
75563;PMS7003;64143;53.034;18.582;2023-02-13T16:36:43;4;4;3
75563;PMS7003;64143;53.034;18.582;2023-02-13T16:39:45;5;5;3
75563;PMS7003;64143;53.034;18.582;2023-02-13T16:42:46;5;5;4
75563;PMS7003;64143;53.034;18.582;2023-02-13T16:45:48;5;5;5
75563;PMS7003;64143;53.034;18.582;2023-02-13T16:55:23;7;4;3
75563;PMS7003;64143;53.034;18.582;2023-02-13T16:58:26;14;11;7
75563;PMS7003;64143;53.034;18.582;2023-02-13T17:01:28;12;10;6
75563;PMS7003;64143;53.034;18.582;2023-02-13T17:04:30;13;12;8
75563;PMS7003;64143;53.034;18.582;2023-02-13T17:10:43;7;5;4
75563;PMS7003;64143;53.034;18.582;2023-02-13T17:13:55;8;8;4
75563;PMS7003;64143;53.034;18.582;2023-02-13T17:16:56;10;8;3
75563;PMS7003;64143;53.034;18.582;2023-02-13T17:19:58;1;0;0
75563;PMS7003;64143;53.034;18.582;2023-02-13T17:23:01;5;5;3
75563;PMS7003;64143;53.034;18.582;2023-02-13T17:26:05;8;5;4
75563;PMS7003;64143;53.034;18.582;2023-02-13T17:29:10;7;6;3
75563;PMS7003;64143;53.034;18.582;2023-02-13T17:32:15;11;8;5
75563;PMS7003;64143;53.034;18.582;2023-02-13T17:35:19;11;8;6
75563;PMS7003;64143;53.034;18.582;2023-02-13T17:38:20;12;12;8
75563;PMS7003;64143;53.034;18.582;2023-02-13T17:41:23;5;3;2
75563;PMS7003;64143;53.034;18.582;2023-02-13T17:44:30;8;6;5
75563;PMS7003;64143;53.034;18.582;2023-02-13T17:47:32;7;6;3
75563;PMS7003;64143;53.034;18.582;2023-02-13T17:50:34;8;7;6
75563;PMS7003;64143;53.034;18.582;2023-02-13T17:53:35;7;7;4
75563;PMS7003;64143;53.034;18.582;2023-02-13T17:56:37;9;6;4
75563;PMS7003;64143;53.034;18.582;2023-02-13T17:59:39;5;5;4
75563;PMS7003;64143;53.034;18.582;2023-02-13T18:02:41;5;5;4
75563;PMS7003;64143;53.034;18.582;2023-02-13T18:05:47;6;6;4
75563;PMS7003;64143;53.034;18.582;2023-02-13T18:08:49;5;5;3
75563;PMS7003;64143;53.034;18.582;2023-02-13T18:11:51;3;3;0
75563;PMS7003;64143;53.034;18.582;2023-02-13T18:14:52;4;4;4
75563;PMS7003;64143;53.034;18.582;2023-02-13T18:17:54;8;6;3
75563;PMS7003;64143;53.034;18.582;2023-02-13T18:20:55;6;6;4
75563;PMS7003;64143;53.034;18.582;2023-02-13T18:23:58;4;3;2
75563;PMS7003;64143;53.034;18.582;2023-02-13T18:27:03;7;7;3
75563;PMS7003;64143;53.034;18.582;2023-02-13T18:30:05;7;6;3
75563;PMS7003;64143;53.034;18.582;2023-02-13T18:33:08;3;2;1
75563;PMS7003;64143;53.034;18.582;2023-02-13T18:36:10;5;5;3
75563;PMS7003;64143;53.034;18.582;2023-02-13T18:39:12;5;5;3
75563;PMS7003;64143;53.034;18.582;2023-02-13T18:42:24;5;5;2
75563;PMS7003;64143;53.034;18.582;2023-02-13T18:45:25;5;3;2
75563;PMS7003;64143;53.034;18.582;2023-02-13T18:48:27;2;2;1
75563;PMS7003;64143;53.034;18.582;2023-02-13T18:51:30;6;6;5
75563;PMS7003;64143;53.034;18.582;2023-02-13T18:54:32;5;4;3
75563;PMS7003;64143;53.034;18.582;2023-02-13T18:57:44;9;9;4
75563;PMS7003;64143;53.034;18.582;2023-02-13T19:00:47;7;7;5
75563;PMS7003;64143;53.034;18.582;2023-02-13T19:03:50;7;6;4
75563;PMS7003;64143;53.034;18.582;2023-02-13T19:06:52;8;8;5
75563;PMS7003;64143;53.034;18.582;2023-02-13T19:09:54;8;7;5
75563;PMS7003;64143;53.034;18.582;2023-02-13T19:13:05;10;10;7
75563;PMS7003;64143;53.034;18.582;2023-02-13T19:16:16;10;5;4
75563;PMS7003;64143;53.034;18.582;2023-02-13T19:19:15;7;4;3
75563;PMS7003;64143;53.034;18.582;2023-02-13T19:22:17;12;10;6
75563;PMS7003;64143;53.034;18.582;2023-02-13T19:25:18;8;8;6
75563;PMS7003;64143;53.034;18.582;2023-02-13T19:28:26;9;9;6
75563;PMS7003;64143;53.034;18.582;2023-02-13T19:31:28;12;7;5
75563;PMS7003;64143;53.034;18.582;2023-02-13T19:34:34;11;9;6
75563;PMS7003;64143;53.034;18.582;2023-02-13T19:37:38;7;7;5
75563;PMS7003;64143;53.034;18.582;2023-02-13T19:40:40;8;6;4
75563;PMS7003;64143;53.034;18.582;2023-02-13T19:43:46;11;8;6
75563;PMS7003;64143;53.034;18.582;2023-02-13T19:46:53;8;6;3
75563;PMS7003;64143;53.034;18.582;2023-02-13T19:49:54;12;8;5
75563;PMS7003;64143;53.034;18.582;2023-02-13T19:52:56;10;10;6
75563;PMS7003;64143;53.034;18.582;2023-02-13T19:56:01;14;12;7
75563;PMS7003;64143;53.034;18.582;2023-02-13T19:59:07;7;7;5
75563;PMS7003;64143;53.034;18.582;2023-02-13T20:02:14;10;8;5
75563;PMS7003;64143;53.034;18.582;2023-02-13T20:05:18;8;6;4
75563;PMS7003;64143;53.034;18.582;2023-02-13T20:08:19;4;3;2
75563;PMS7003;64143;53.034;18.582;2023-02-13T20:11:21;5;3;2
75563;PMS7003;64143;53.034;18.582;2023-02-13T20:14:28;6;3;3
75563;PMS7003;64143;53.034;18.582;2023-02-13T20:17:30;7;7;3
75563;PMS7003;64143;53.034;18.582;2023-02-13T20:20:31;5;5;3
75563;PMS7003;64143;53.034;18.582;2023-02-13T20:23:33;11;5;3
75563;PMS7003;64143;53.034;18.582;2023-02-13T20:26:35;4;4;3
75563;PMS7003;64143;53.034;18.582;2023-02-13T20:29:37;7;7;4
75563;PMS7003;64143;53.034;18.582;2023-02-13T20:32:39;6;6;3
75563;PMS7003;64143;53.034;18.582;2023-02-13T20:35:44;7;7;3
75563;PMS7003;64143;53.034;18.582;2023-02-13T20:38:46;5;5;4
75563;PMS7003;64143;53.034;18.582;2023-02-13T20:41:50;7;6;3
75563;PMS7003;64143;53.034;18.582;2023-02-13T20:44:51;6;4;3
75563;PMS7003;64143;53.034;18.582;2023-02-13T20:47:53;8;5;4
75563;PMS7003;64143;53.034;18.582;2023-02-13T20:51:05;6;5;2
75563;PMS7003;64143;53.034;18.582;2023-02-13T20:54:09;2;2;1
75563;PMS7003;64143;53.034;18.582;2023-02-13T20:57:11;7;6;4
75563;PMS7003;64143;53.034;18.582;2023-02-13T21:00:13;10;8;5
75563;PMS7003;64143;53.034;18.582;2023-02-13T21:03:16;10;8;5
75563;PMS7003;64143;53.034;18.582;2023-02-13T21:06:26;3;3;2
75563;PMS7003;64143;53.034;18.582;2023-02-13T21:09:29;13;10;6
75563;PMS7003;64143;53.034;18.582;2023-02-13T21:12:31;17;12;7
75563;PMS7003;64143;53.034;18.582;2023-02-13T21:15:32;7;7;5
75563;PMS7003;64143;53.034;18.582;2023-02-13T21:18:34;10;6;3
75563;PMS7003;64143;53.034;18.582;2023-02-13T21:21:46;11;10;6
75563;PMS7003;64143;53.034;18.582;2023-02-13T21:24:48;14;10;8
